Time;durP1;ratioP1;P1;durP2;ratioP2;P2;SDS_P1;SDS_P2;PMS_P1;PMS_P2;Temp;Humidity;BMP_temperature;BMP_pressure;BME280_temperature;BME280_humidity;BME280_pressure;Samples;Min_cycle;Max_cycle;Signal;HPM_P1;HPM_P2
2021/06/28 00:01:42;;;;;;;4.82;4.28;;;;;;;18.36;64.37;100100.50;10521012;28;20048;-70
2021/06/28 00:06:44;;;;;;;5.03;4.70;;;;;;;18.35;64.56;100096.13;10539012;28;20044;-70
2021/06/28 00:11:45;;;;;;;5.40;4.90;;;;;;;18.06;65.40;100092.59;10520845;28;20081;-70
2021/06/28 00:16:47;;;;;;;5.28;4.97;;;;;;;17.99;65.53;100096.63;10538687;28;20493;-69
2021/06/28 00:21:49;;;;;;;5.00;4.70;;;;;;;18.13;64.54;100093.94;10538356;28;20060;-70
2021/06/28 00:26:50;;;;;;;5.00;4.70;;;;;;;18.31;64.63;100107.91;10520258;28;20047;-69
2021/06/28 00:31:55;;;;;;;4.80;4.50;;;;;;;18.12;65.30;100103.75;10540116;28;20443;-69
2021/06/28 00:36:57;;;;;;;5.97;5.68;;;;;;;18.04;65.74;100106.00;10528674;28;20060;-69
2021/06/28 00:42:02;;;;;;;5.82;5.35;;;;;;;18.25;64.46;100103.84;10528701;28;20070;-69
2021/06/28 00:47:04;;;;;;;6.18;5.78;;;;;;;18.14;64.58;100108.94;10546694;28;20071;-69
2021/06/28 00:52:05;;;;;;;5.95;5.63;;;;;;;18.12;65.01;100103.75;10545352;28;20451;-69
2021/06/28 00:57:07;;;;;;;5.75;5.35;;;;;;;17.93;65.01;100105.84;10546854;28;20044;-69
2021/06/28 01:02:09;;;;;;;6.90;6.50;;;;;;;17.86;65.78;100107.13;10527489;28;20052;-69
2021/06/28 01:07:10;;;;;;;6.18;5.88;;;;;;;17.85;66.25;100105.44;10527645;28;20451;-69
2021/06/28 01:12:12;;;;;;;6.00;5.60;;;;;;;17.87;66.06;100116.81;10546002;28;20493;-69
2021/06/28 01:17:14;;;;;;;6.32;5.93;;;;;;;17.79;66.17;100114.63;10545601;28;20088;-69
2021/06/28 01:22:20;;;;;;;6.13;5.72;;;;;;;17.92;65.83;100109.41;10510241;28;20110;-69
2021/06/28 01:27:22;;;;;;;6.20;5.80;;;;;;;17.88;66.23;100107.88;10543978;28;20427;-69
2021/06/28 01:32:26;;;;;;;6.32;5.93;;;;;;;17.91;65.97;100102.41;10526648;28;20048;-69
2021/06/28 01:37:28;;;;;;;6.78;6.38;;;;;;;17.90;66.26;100103.34;10544626;28;20040;-69
2021/06/28 01:42:32;;;;;;;6.35;5.97;;;;;;;17.94;66.42;100101.38;10542697;28;20052;-69
2021/06/28 01:47:34;;;;;;;7.38;6.80;;;;;;;18.02;65.69;100102.59;10542308;28;20048;-69
2021/06/28 01:52:36;;;;;;;6.65;6.32;;;;;;;17.90;65.69;100098.03;10544040;28;20039;-69
2021/06/28 01:57:45;;;;;;;6.53;6.03;;;;;;;18.08;64.99;100096.91;10543800;28;20040;-69
2021/06/28 02:03:02;;;;;;;6.75;6.32;;;;;;;18.11;64.71;100091.41;10544329;28;20056;-69
2021/06/28 02:08:06;;;;;;;7.07;6.57;;;;;;;18.23;63.92;100087.09;10543268;28;20052;-69
2021/06/28 02:13:07;;;;;;;6.35;5.95;;;;;;;17.93;65.45;100089.00;10542035;28;20056;-69
2021/06/28 02:18:09;;;;;;;7.20;6.72;;;;;;;17.84;65.90;100091.28;10543139;28;20122;-69
2021/06/28 02:23:25;;;;;;;7.32;6.82;;;;;;;17.73;65.72;100087.53;10525746;28;20047;-69
2021/06/28 02:28:29;;;;;;;8.20;7.70;;;;;;;17.62;66.75;100083.72;10543883;28;20040;-69
2021/06/28 02:33:30;;;;;;;7.70;7.20;;;;;;;17.74;66.44;100081.28;10541163;28;20059;-69
2021/06/28 02:38:33;;;;;;;7.45;6.97;;;;;;;17.72;66.58;100076.03;10542773;28;20040;-69
2021/06/28 02:43:35;;;;;;;7.30;6.80;;;;;;;18.04;65.18;100075.91;10542335;28;20048;-69
2021/06/28 02:48:37;;;;;;;6.70;6.30;;;;;;;17.93;65.64;100073.03;10542178;28;20050;-69
2021/06/28 02:53:39;;;;;;;6.68;6.18;;;;;;;17.96;65.54;100073.72;10541974;28;20070;-69
2021/06/28 02:58:53;;;;;;;5.97;5.57;;;;;;;17.96;65.92;100075.50;10541131;28;20472;-69
2021/06/28 03:03:55;;;;;;;6.38;5.90;;;;;;;18.00;65.46;100082.34;10541563;28;20040;-69
2021/06/28 03:08:57;;;;;;;6.57;6.18;;;;;;;17.95;65.65;100085.31;10541592;28;20063;-69
2021/06/28 03:13:59;;;;;;;6.57;6.07;;;;;;;17.99;65.68;100078.84;10541636;28;20055;-69
2021/06/28 03:19:00;;;;;;;6.28;5.93;;;;;;;17.98;65.74;100076.28;10541019;28;20048;-69
2021/06/28 03:24:02;;;;;;;6.93;6.43;;;;;;;17.94;65.97;100075.63;10523920;28;20496;-69
2021/06/28 03:29:03;;;;;;;6.53;5.93;;;;;;;17.97;65.53;100078.06;10540789;28;20040;-69
2021/06/28 03:34:05;;;;;;;7.00;6.57;;;;;;;17.94;65.74;100083.59;10498025;22;20466;-72
2021/06/28 03:39:08;;;;;;;6.85;6.35;;;;;;;18.10;65.18;100084.34;10481377;28;20044;-73
2021/06/28 03:44:09;;;;;;;6.53;6.03;;;;;;;17.97;65.96;100082.53;10498647;28;20105;-73
2021/06/28 03:49:11;;;;;;;7.70;7.00;;;;;;;18.05;65.12;100078.44;10481002;28;20052;-73
2021/06/28 03:54:12;;;;;;;7.60;7.10;;;;;;;18.11;64.64;100072.78;10480635;28;20101;-73
2021/06/28 03:59:14;;;;;;;7.13;6.72;;;;;;;18.24;64.32;100075.53;10498815;28;20494;-73
2021/06/28 04:04:17;;;;;;;6.80;6.38;;;;;;;18.28;63.23;100066.41;10499040;28;20324;-72
2021/06/28 04:09:18;;;;;;;6.80;6.30;;;;;;;18.39;62.74;100073.69;10479007;28;20041;-73
2021/06/28 04:14:20;;;;;;;6.35;5.85;;;;;;;18.33;63.50;100074.94;10498610;28;20055;-72
2021/06/28 04:19:21;;;;;;;7.03;6.53;;;;;;;18.15;64.77;100081.44;10480933;28;20039;-72
2021/06/28 04:24:23;;;;;;;6.68;6.07;;;;;;;18.07;64.93;100081.88;10499330;28;20086;-72
2021/06/28 04:29:24;;;;;;;6.85;6.45;;;;;;;18.56;62.79;100085.94;10498590;28;20037;-72
2021/06/28 04:34:26;;;;;;;6.32;5.93;;;;;;;18.45;63.62;100088.41;10498712;28;20106;-72
2021/06/28 04:39:27;;;;;;;6.75;6.35;;;;;;;18.47;63.84;100087.38;10499331;28;20052;-72
2021/06/28 04:44:29;;;;;;;6.13;5.82;;;;;;;18.62;63.40;100097.03;10500463;28;20086;-72
2021/06/28 04:49:31;;;;;;;6.32;5.93;;;;;;;18.46;64.42;100098.09;10498838;28;20041;-72
2021/06/28 04:54:32;;;;;;;7.43;6.82;;;;;;;18.69;63.89;100100.19;10498673;28;20048;-72
2021/06/28 04:59:34;;;;;;;5.78;5.38;;;;;;;18.77;64.29;100100.56;10499303;28;20036;-72
2021/06/28 05:04:35;;;;;;;6.10;5.60;;;;;;;18.94;63.03;100095.94;10498356;28;20489;-72
2021/06/28 05:09:37;;;;;;;6.25;5.75;;;;;;;19.20;61.36;100087.06;10497387;28;20052;-72
2021/06/28 05:14:39;;;;;;;6.18;5.75;;;;;;;19.20;61.82;100092.41;10497577;28;20110;-74
2021/06/28 05:19:41;;;;;;;6.93;6.43;;;;;;;19.11;62.84;100093.88;10501593;28;20049;-72
2021/06/28 05:24:42;;;;;;;6.97;6.05;;;;;;;19.38;61.94;100093.81;10505895;28;20051;-72
2021/06/28 05:29:44;;;;;;;6.75;6.25;;;;;;;19.75;60.73;100093.19;10486500;28;20502;-72
2021/06/28 05:34:46;;;;;;;8.85;6.22;;;;;;;19.89;60.02;100091.25;10504453;28;20055;-73
2021/06/28 05:39:48;;;;;;;6.35;5.63;;;;;;;19.76;60.36;100101.06;10486733;28;20048;-72
2021/06/28 05:44:49;;;;;;;6.50;5.85;;;;;;;19.70;60.69;100097.97;10503837;28;20044;-72
2021/06/28 05:49:51;;;;;;;6.07;5.72;;;;;;;19.83;60.64;100110.38;10504060;28;20505;-72
2021/06/28 05:54:53;;;;;;;6.78;6.25;;;;;;;20.09;59.49;100099.69;10504512;28;20048;-72
2021/06/28 05:59:54;;;;;;;6.40;5.97;;;;;;;20.09;59.87;100119.22;10504179;28;20106;-72
2021/06/28 06:04:56;;;;;;;5.55;5.15;;;;;;;20.47;59.84;100121.00;10504863;28;20402;-71
2021/06/28 06:09:58;;;;;;;8.50;6.07;;;;;;;20.95;57.91;100118.44;10486835;28;20051;-73
2021/06/28 06:14:59;;;;;;;6.45;5.85;;;;;;;22.07;55.20;100112.66;10503220;28;20497;-72
2021/06/28 06:20:01;;;;;;;4.38;4.07;;;;;;;22.91;53.40;100120.19;10503366;28;20044;-72
2021/06/28 06:25:04;;;;;;;4.95;4.38;;;;;;;23.64;50.95;100115.03;10502198;28;20044;-72
2021/06/28 06:30:07;;;;;;;4.32;4.05;;;;;;;24.15;47.50;100106.19;10483571;28;20129;-72
2021/06/28 06:35:25;;;;;;;4.13;3.55;;;;;;;24.31;48.11;100100.34;10502457;28;20048;-72
2021/06/28 06:40:28;;;;;;;3.63;3.33;;;;;;;24.61;48.29;100107.53;10502101;28;20036;-72
2021/06/28 06:45:30;;;;;;;3.08;2.83;;;;;;;24.95;45.23;100105.34;10498667;28;20489;-72
2021/06/28 06:50:32;;;;;;;3.92;3.22;;;;;;;23.98;46.92;100106.81;10501241;28;20090;-72
2021/06/28 06:55:34;;;;;;;5.10;3.45;;;;;;;23.97;48.11;100107.78;10501552;28;20053;-72
2021/06/28 07:00:39;;;;;;;4.00;3.70;;;;;;;23.69;49.56;100101.28;10483617;28;20115;-71
2021/06/28 07:05:42;;;;;;;;;;;;;;;23.70;49.66;100100.28;10485247;28;20375;-71
2021/06/28 07:10:43;;;;;;;3.70;3.50;;;;;;;24.11;48.05;100089.50;10500558;28;20374;-71
2021/06/28 07:15:45;;;;;;;5.80;3.80;;;;;;;24.27;48.31;100102.44;10501303;28;20052;-71
2021/06/28 07:20:47;;;;;;;3.42;3.13;;;;;;;24.14;49.79;100094.59;10500620;28;20090;-72
2021/06/28 07:25:48;;;;;;;4.88;3.65;;;;;;;24.09;49.92;100087.94;10499994;28;20052;-71
2021/06/28 07:30:50;;;;;;;4.20;3.80;;;;;;;24.09;49.73;100102.22;10481727;28;20037;-72
2021/06/28 07:35:53;;;;;;;4.18;3.88;;;;;;;24.46;48.38;100093.63;10499675;28;20048;-73
2021/06/28 07:40:54;;;;;;;5.40;4.28;;;;;;;24.27;49.37;100101.59;10498663;28;20036;-72
2021/06/28 07:45:56;;;;;;;4.03;3.72;;;;;;;24.26;49.46;100106.13;10501641;28;20052;-72
2021/06/28 07:50:58;;;;;;;4.32;4.00;;;;;;;24.31;49.15;100105.72;10498737;28;20045;-71
2021/06/28 07:56:14;;;;;;;4.72;4.43;;;;;;;24.65;47.61;100114.34;10499980;28;20063;-72
2021/06/28 08:01:17;;;;;;;;;;;;;;;24.50;48.76;100103.13;10482680;28;20520;-72
2021/06/28 08:06:19;;;;;;;5.75;4.70;;;;;;;25.42;46.95;100108.25;10499081;28;19944;-71
2021/06/28 08:11:24;;;;;;;4.63;4.22;;;;;;;25.42;47.16;100116.31;10497519;28;20049;-72
2021/06/28 08:16:25;;;;;;;4.43;4.03;;;;;;;26.02;45.29;100099.94;10497471;28;20044;-72
2021/06/28 08:21:27;;;;;;;5.05;4.13;;;;;;;26.15;45.80;100101.31;10497781;28;20052;-71
2021/06/28 08:26:29;;;;;;;5.00;4.60;;;;;;;26.45;44.79;100096.69;10498390;28;20046;-71
2021/06/28 08:31:32;;;;;;;4.63;4.22;;;;;;;27.27;43.38;100087.69;10496562;28;20037;-71
2021/06/28 08:36:46;;;;;;;3.97;3.67;;;;;;;27.74;43.12;100073.91;10498256;28;20040;-70
2021/06/28 08:41:52;;;;;;;4.13;3.83;;;;;;;28.13;43.10;100068.06;10497969;28;20441;-72
2021/06/28 08:46:54;;;;;;;4.10;3.70;;;;;;;28.27;42.63;100066.59;10498154;28;20090;-71
2021/06/28 08:51:56;;;;;;;4.43;4.00;;;;;;;28.79;41.72;100066.50;10480231;28;20052;-72
2021/06/28 08:56:59;;;;;;;4.68;4.32;;;;;;;28.59;41.39;100063.22;10506499;28;20048;-70
2021/06/28 09:02:00;;;;;;;4.10;3.80;;;;;;;29.16;40.16;100072.31;10505649;28;20051;-73
2021/06/28 09:07:21;;;;;;;3.60;3.40;;;;;;;29.82;39.77;100075.88;10486643;28;20131;-72
2021/06/28 09:12:23;;;;;;;3.35;2.95;;;;;;;30.30;38.15;100082.22;10504398;28;20064;-73
2021/06/28 09:17:31;;;;;;;3.58;3.28;;;;;;;30.44;38.89;100082.50;10504941;28;20032;-73
2021/06/28 09:22:32;;;;;;;3.28;2.97;;;;;;;30.43;37.97;100084.38;10505316;28;20098;-72
2021/06/28 09:27:44;;;;;;;2.88;2.67;;;;;;;31.07;36.46;100084.22;10486749;28;20477;-72
2021/06/28 09:32:59;;;;;;;3.45;3.00;;;;;;;31.32;35.92;100076.78;10504721;28;20059;-73
2021/06/28 09:38:06;;;;;;;;;;;;;;;31.38;34.97;100076.88;10501973;28;20048;-72
2021/06/28 09:43:25;;;;;;;3.00;2.80;;;;;;;31.39;33.84;100081.31;10503009;28;19927;-73
2021/06/28 09:48:31;;;;;;;2.97;2.78;;;;;;;31.15;34.51;100074.16;10485736;28;20040;-73
2021/06/28 09:53:32;;;;;;;2.47;2.25;;;;;;;32.06;34.79;100063.38;10504408;28;20119;-72
2021/06/28 09:58:34;;;;;;;3.42;3.13;;;;;;;32.71;34.53;100067.16;10485263;28;20044;-73
2021/06/28 10:03:42;;;;;;;2.83;2.67;;;;;;;31.40;34.94;100069.41;10502934;28;20051;-75
2021/06/28 10:08:50;;;;;;;2.75;2.63;;;;;;;31.11;35.70;100064.66;10487117;28;20036;-72
2021/06/28 10:13:54;;;;;;;2.55;2.35;;;;;;;31.76;35.71;100060.59;10503726;28;20056;-72
2021/06/28 10:18:57;;;;;;;2.75;2.63;;;;;;;31.88;34.68;100058.28;10503317;28;20044;-72
2021/06/28 10:23:59;;;;;;;3.03;2.85;;;;;;;32.55;32.46;100051.91;10502958;28;20048;-74
2021/06/28 10:29:02;;;;;;;4.72;2.90;;;;;;;32.01;35.77;100041.31;10503430;28;20098;-72
2021/06/28 10:34:05;;;;;;;4.28;2.92;;;;;;;31.29;37.28;100053.53;10502030;28;20417;-72
2021/06/28 10:39:09;;;;;;;2.72;2.53;;;;;;;31.06;36.50;100058.94;10502528;28;20115;-72
2021/06/28 10:44:13;;;;;;;2.83;2.70;;;;;;;31.42;34.87;100057.50;10501869;28;20359;-72
2021/06/28 10:49:17;;;;;;;2.28;2.17;;;;;;;31.58;34.61;100049.22;10503073;28;20524;-73
2021/06/28 10:54:31;;;;;;;2.63;2.40;;;;;;;31.90;34.34;100043.47;10503130;28;20052;-74
2021/06/28 10:59:43;;;;;;;2.70;2.20;;;;;;;31.85;33.06;100037.75;10504336;28;20037;-74
2021/06/28 11:04:55;;;;;;;1.92;1.83;;;;;;;32.06;31.69;100025.31;10502000;28;20044;-74
2021/06/28 11:09:57;;;;;;;2.33;2.10;;;;;;;30.93;34.16;100020.69;10501616;28;20040;-71
2021/06/28 11:15:24;;;;;;;2.13;1.83;;;;;;;30.48;35.50;100022.31;10500826;28;20055;-73
2021/06/28 11:20:35;;;;;;;2.25;2.00;;;;;;;29.95;36.48;100015.72;10501141;28;20486;-73
2021/06/28 11:25:37;;;;;;;2.38;2.17;;;;;;;30.36;36.84;100013.72;10501455;28;20082;-73
2021/06/28 11:30:53;;;;;;;2.13;2.03;;;;;;;30.94;36.12;100016.09;10500703;28;20036;-73
2021/06/28 11:35:55;;;;;;;2.55;2.33;;;;;;;30.97;37.28;100010.31;10501357;28;20486;-73
2021/06/28 11:40:59;;;;;;;2.53;2.33;;;;;;;30.64;36.32;100008.66;10483395;28;20452;-73
2021/06/28 11:46:02;;;;;;;2.50;2.30;;;;;;;30.90;38.58;100013.78;10482881;28;20048;-73
2021/06/28 11:51:13;;;;;;;2.45;2.30;;;;;;;30.84;35.39;100002.78;10500303;28;20110;-73
2021/06/28 11:56:23;;;;;;;2.20;2.10;;;;;;;30.54;36.86;100005.31;10483395;28;20532;-73
2021/06/28 12:01:31;;;;;;;2.50;2.40;;;;;;;30.58;38.61;99998.50;10483024;28;20452;-74
2021/06/28 12:06:36;;;;;;;3.00;2.80;;;;;;;30.59;36.46;99994.78;10500769;28;20460;-73
2021/06/28 12:11:56;;;;;;;2.65;2.45;;;;;;;31.28;36.85;99989.38;10498582;28;20460;-74
2021/06/28 12:16:59;;;;;;;2.72;2.33;;;;;;;31.42;35.88;99981.44;10498173;28;20074;-75
2021/06/28 12:22:19;;;;;;;2.83;2.03;;;;;;;31.59;37.77;99991.13;10500171;28;20045;-75
2021/06/28 12:27:24;;;;;;;2.22;2.03;;;;;;;31.81;35.65;99979.31;10498927;28;20079;-75
2021/06/28 12:32:27;;;;;;;2.78;2.58;;;;;;;31.22;35.78;99984.66;10499239;28;20054;-74
2021/06/28 12:37:32;;;;;;;2.75;2.55;;;;;;;31.36;36.29;99975.75;10481642;28;20041;-75
2021/06/28 12:42:39;;;;;;;2.50;2.40;;;;;;;31.74;34.51;99975.66;10481716;28;20075;-74
2021/06/28 12:47:42;;;;;;;2.40;2.20;;;;;;;32.12;34.95;99968.28;10499901;28;20040;-75
2021/06/28 12:52:45;;;;;;;2.47;2.20;;;;;;;31.57;35.84;99966.88;10498734;28;20072;-75
2021/06/28 12:57:58;;;;;;;2.17;2.08;;;;;;;32.31;34.04;99958.66;10500131;28;20074;-72
2021/06/28 13:03:00;;;;;;;2.25;2.05;;;;;;;31.78;33.14;99951.66;10499365;28;20041;-72
2021/06/28 13:08:17;;;;;;;2.50;2.40;;;;;;;32.86;34.02;99945.47;10498739;28;20047;-72
2021/06/28 13:13:24;;;;;;;2.20;1.90;;;;;;;32.49;32.21;99949.25;10498860;28;20498;-72
2021/06/28 13:18:26;;;;;;;2.67;1.95;;;;;;;33.05;33.47;99942.09;10497326;28;20139;-71
2021/06/28 13:23:28;;;;;;;2.60;2.40;;;;;;;32.95;32.56;99940.75;10497656;28;20048;-72
2021/06/28 13:28:31;;;;;;;2.20;2.10;;;;;;;32.76;32.45;99934.03;10497911;28;20478;-71
2021/06/28 13:33:32;;;;;;;2.38;2.22;;;;;;;32.44;33.20;99938.94;10496658;28;20560;-72
2021/06/28 13:38:52;;;;;;;2.60;2.40;;;;;;;32.39;33.48;99941.41;10495470;28;20044;-71
2021/06/28 13:44:09;;;;;;;2.05;1.95;;;;;;;31.94;33.13;99935.22;10504927;28;20044;-73
2021/06/28 13:49:29;;;;;;;2.15;2.05;;;;;;;32.58;34.64;99924.47;10504973;28;20036;-72
2021/06/28 13:54:33;;;;;;;3.75;2.28;;;;;;;32.60;33.06;99932.44;10505063;28;20478;-72
2021/06/28 13:59:34;;;;;;;2.72;2.53;;;;;;;31.75;35.78;99936.59;10504868;28;20049;-73
2021/06/28 14:04:36;;;;;;;2.65;2.22;;;;;;;31.68;35.56;99923.94;10504989;28;20040;-72
2021/06/28 14:09:38;;;;;;;2.13;1.90;;;;;;;31.87;35.96;99929.66;10504487;28;20037;-72
2021/06/28 14:14:39;;;;;;;2.53;2.08;;;;;;;32.04;34.37;99919.44;10503933;28;20052;-73
2021/06/28 14:19:41;;;;;;;2.35;2.25;;;;;;;32.22;33.86;99916.28;10488885;28;20037;-74
2021/06/28 14:24:42;;;;;;;2.22;2.00;;;;;;;31.98;33.39;99914.78;10506939;28;20460;-72
2021/06/28 14:29:44;;;;;;;2.20;2.10;;;;;;;31.90;32.95;99918.44;10502446;28;20070;-72
2021/06/28 14:34:46;;;;;;;2.55;2.00;;;;;;;31.60;33.73;99906.69;10483577;28;20156;-73
2021/06/28 14:39:48;;;;;;;1.98;1.88;;;;;;;31.68;33.48;99911.19;10502936;28;20063;-71
2021/06/28 14:44:51;;;;;;;1.98;1.88;;;;;;;31.92;34.05;99915.53;10501406;28;20056;-72
2021/06/28 14:49:52;;;;;;;1.95;1.85;;;;;;;31.89;33.28;99911.31;10503286;28;20051;-72
2021/06/28 14:54:57;;;;;;;1.92;1.70;;;;;;;32.24;32.74;99903.34;10501126;28;20040;-72
2021/06/28 14:59:59;;;;;;;;;;;;;;;32.46;33.35;99904.25;10501162;28;20127;-72
2021/06/28 15:05:01;;;;;;;2.13;2.03;;;;;;;32.72;31.68;99902.78;10500391;28;19920;-72
2021/06/28 15:10:03;;;;;;;3.65;1.88;;;;;;;32.93;32.15;99900.09;10500041;28;20052;-72
2021/06/28 15:15:08;;;;;;;1.95;1.85;;;;;;;32.25;33.69;99905.03;10499932;28;20575;-73
2021/06/28 15:20:10;;;;;;;2.80;2.10;;;;;;;32.74;31.69;99892.56;10501078;28;20440;-72
2021/06/28 15:25:12;;;;;;;2.55;1.98;;;;;;;33.40;30.89;99887.66;10500134;28;20055;-72
2021/06/28 15:30:18;;;;;;;2.15;2.05;;;;;;;33.42;31.31;99882.81;10497636;28;20048;-73
2021/06/28 15:35:21;;;;;;;2.00;1.80;;;;;;;32.84;32.24;99866.69;10465899;28;20048;-72
2021/06/28 15:40:23;;;;;;;1.80;1.70;;;;;;;33.58;30.83;99862.63;10482522;28;20041;-72
2021/06/28 15:45:26;;;;;;;1.80;1.70;;;;;;;33.67;30.94;99861.41;10499126;28;20098;-73
2021/06/28 15:50:28;;;;;;;2.75;1.98;;;;;;;33.03;32.22;99858.94;10498641;28;20062;-72
2021/06/28 15:55:30;;;;;;;2.45;2.15;;;;;;;33.79;32.12;99856.22;10498963;28;20135;-72
2021/06/28 16:00:32;;;;;;;2.88;1.77;;;;;;;33.74;30.67;99850.53;10481281;28;20112;-73
2021/06/28 16:05:36;;;;;;;2.22;1.70;;;;;;;33.28;31.46;99846.50;10497858;28;20048;-71
2021/06/28 16:10:38;;;;;;;2.00;1.80;;;;;;;32.43;32.94;99839.34;10499116;28;20397;-73
2021/06/28 16:15:40;;;;;;;2.17;1.98;;;;;;;31.98;34.88;99832.38;10484903;28;20059;-72
2021/06/28 16:20:42;;;;;;;2.78;2.58;;;;;;;31.62;34.87;99825.03;10482653;28;20601;-72
2021/06/28 16:25:44;;;;;;;3.22;2.65;;;;;;;31.06;36.01;99814.63;10498215;28;20041;-72
2021/06/28 16:30:45;;;;;;;4.07;3.20;;;;;;;31.01;35.79;99816.22;10498354;28;20040;-72
2021/06/28 16:35:47;;;;;;;2.00;1.90;;;;;;;30.76;36.81;99807.47;10498071;28;20111;-72
2021/06/28 16:40:49;;;;;;;2.80;2.60;;;;;;;30.82;35.98;99818.44;10497550;28;20040;-72
2021/06/28 16:45:50;;;;;;;2.70;2.50;;;;;;;30.51;37.34;99810.41;10479104;28;20418;-72
2021/06/28 16:50:52;;;;;;;2.20;2.03;;;;;;;30.23;37.97;99806.56;10496933;28;20044;-72
2021/06/28 16:55:54;;;;;;;2.00;1.90;;;;;;;30.21;36.44;99786.91;10497683;28;20495;-73
2021/06/28 17:00:56;;;;;;;2.08;1.98;;;;;;;30.00;37.56;99787.53;10497507;28;20040;-72
2021/06/28 17:05:58;;;;;;;2.35;2.15;;;;;;;29.93;38.60;99784.72;10495764;28;20112;-72
2021/06/28 17:10:59;;;;;;;2.40;2.20;;;;;;;29.74;39.02;99787.88;10479000;28;20052;-73
2021/06/28 17:16:01;;;;;;;2.75;1.88;;;;;;;29.51;38.46;99794.06;10502239;28;20409;-73
2021/06/28 17:21:03;;;;;;;2.10;2.00;;;;;;;29.53;38.58;99785.75;10504144;28;20041;-73
2021/06/28 17:26:05;;;;;;;2.35;2.15;;;;;;;29.07;39.45;99786.47;10505922;28;20047;-73
2021/06/28 17:31:07;;;;;;;2.50;1.90;;;;;;;29.10;39.57;99775.28;10487875;28;20044;-74
2021/06/28 17:36:09;;;;;;;1.95;1.85;;;;;;;29.00;39.67;99780.06;10505574;28;20090;-73
2021/06/28 17:41:10;;;;;;;2.15;2.05;;;;;;;28.80;39.96;99776.03;10504605;28;20055;-72
2021/06/28 17:46:12;;;;;;;2.15;1.95;;;;;;;28.66;40.38;99773.00;10487174;28;20052;-73
2021/06/28 17:51:15;;;;;;;2.08;1.98;;;;;;;28.69;40.02;99774.53;10505831;28;20467;-73
2021/06/28 17:56:17;;;;;;;2.35;1.95;;;;;;;28.55;40.87;99777.91;10504075;28;20052;-73
2021/06/28 18:01:21;;;;;;;2.28;1.90;;;;;;;28.29;41.58;99780.75;10504002;28;20040;-73
2021/06/28 18:06:23;;;;;;;3.00;2.25;;;;;;;28.31;41.09;99771.47;10485173;28;20045;-73
2021/06/28 18:11:25;;;;;;;2.60;2.40;;;;;;;28.15;41.81;99775.00;10503493;28;20041;-72
2021/06/28 18:16:29;;;;;;;2.10;2.00;;;;;;;27.92;42.99;99776.69;10502181;28;20056;-72
2021/06/28 18:21:32;;;;;;;2.22;2.13;;;;;;;27.87;43.37;99776.34;10485956;28;20053;-74
2021/06/28 18:26:33;;;;;;;2.60;2.40;;;;;;;27.86;43.12;99771.97;10501034;28;20110;-73
2021/06/28 18:31:36;;;;;;;2.70;2.50;;;;;;;27.60;43.93;99766.63;10502559;28;20044;-74
2021/06/28 18:36:42;;;;;;;2.05;1.92;;;;;;;27.74;42.91;99757.09;10503109;28;20041;-73
2021/06/28 18:41:46;;;;;;;2.60;2.40;;;;;;;27.52;44.27;99761.22;10502419;28;20383;-74
2021/06/28 18:46:49;;;;;;;3.03;2.17;;;;;;;27.21;44.63;99763.63;10503383;28;20080;-74
2021/06/28 18:51:51;;;;;;;2.40;2.20;;;;;;;27.06;45.37;99763.38;10502120;28;20045;-73
2021/06/28 18:56:57;;;;;;;2.70;2.50;;;;;;;26.69;46.40;99774.44;10501973;28;20040;-73
2021/06/28 19:07:30;;;;;;;2.63;2.42;;;;;;;26.26;47.71;99771.59;10374470;28;20050;-75
2021/06/28 19:12:31;;;;;;;3.40;3.10;;;;;;;25.95;48.28;99775.69;10374614;28;20064;-74
2021/06/28 19:17:33;;;;;;;3.25;2.92;;;;;;;25.91;48.94;99791.28;10374202;28;20128;-73
2021/06/28 19:22:35;;;;;;;3.20;2.85;;;;;;;25.78;48.80;99788.97;10354122;28;20046;-73
2021/06/28 19:27:37;;;;;;;2.78;2.53;;;;;;;25.62;49.68;99788.75;10374308;28;20058;-73
2021/06/28 19:32:39;;;;;;;2.97;2.78;;;;;;;25.39;49.90;99791.84;10357124;28;20057;-73
2021/06/28 19:37:40;;;;;;;3.30;3.10;;;;;;;25.26;50.19;99806.66;10373457;28;20642;-73
2021/06/28 19:42:42;;;;;;;3.30;3.10;;;;;;;25.05;50.68;99798.78;10439568;28;20060;-73
2021/06/28 19:47:43;;;;;;;3.72;3.53;;;;;;;24.96;51.04;99810.41;10500643;28;20036;-74
2021/06/28 19:52:46;;;;;;;3.10;2.90;;;;;;;24.77;51.58;99825.59;10500474;28;20041;-75
2021/06/28 19:57:48;;;;;;;3.35;3.15;;;;;;;24.74;51.29;99828.56;10482669;28;20066;-73
2021/06/28 20:02:50;;;;;;;4.07;3.88;;;;;;;24.67;52.06;99828.31;10499689;28;20410;-74
2021/06/28 20:07:51;;;;;;;4.80;4.50;;;;;;;24.55;52.35;99818.72;10498320;28;20053;-73
2021/06/28 20:12:54;;;;;;;5.38;4.57;;;;;;;24.44;53.17;99809.94;10481020;28;20036;-74
2021/06/28 20:17:56;;;;;;;4.07;3.88;;;;;;;24.24;53.77;99811.78;10499082;28;20049;-73
2021/06/28 20:22:58;;;;;;;4.30;4.00;;;;;;;24.13;53.98;99815.47;10498707;28;20041;-73
2021/06/28 20:28:00;;;;;;;3.70;3.40;;;;;;;24.09;53.89;99816.72;10498165;28;20113;-73
2021/06/28 20:33:01;;;;;;;4.43;4.13;;;;;;;24.27;53.55;99815.03;10496441;28;20091;-73
2021/06/28 20:38:03;;;;;;;3.78;3.53;;;;;;;24.03;53.66;99819.94;10497633;28;20051;-73
2021/06/28 20:43:16;;;;;;;4.35;4.05;;;;;;;24.42;53.23;99831.59;10497687;28;20045;-73
2021/06/28 20:48:18;;;;;;;4.03;3.65;;;;;;;24.20;53.52;99837.22;10498104;28;20052;-73
2021/06/28 20:53:19;;;;;;;4.25;3.95;;;;;;;24.27;53.76;99827.63;10487278;28;20045;-73
2021/06/28 20:58:21;;;;;;;3.67;3.47;;;;;;;23.79;55.32;99831.09;10504666;28;20052;-72
2021/06/28 21:03:23;;;;;;;4.35;4.05;;;;;;;23.98;54.92;99838.31;10487917;28;20048;-73
2021/06/28 21:08:25;;;;;;;3.78;3.53;;;;;;;23.47;56.10;99840.16;10504067;28;20045;-73
2021/06/28 21:13:26;;;;;;;4.53;4.28;;;;;;;23.26;57.28;99839.38;10486805;28;20044;-73
2021/06/28 21:18:29;;;;;;;5.15;4.75;;;;;;;23.24;57.64;99842.19;10504692;28;20044;-72
2021/06/28 21:23:31;;;;;;;5.18;4.68;;;;;;;22.90;59.07;99836.22;10502879;28;20490;-72
2021/06/28 21:28:33;;;;;;;4.97;4.68;;;;;;;22.84;58.50;99823.28;10504813;28;20123;-72
2021/06/28 21:33:48;;;;;;;5.32;4.85;;;;;;;22.92;58.92;99827.06;10504268;28;20410;-72
2021/06/28 21:38:50;;;;;;;5.40;5.05;;;;;;;23.07;58.13;99824.88;10504801;28;20094;-72
2021/06/28 21:43:52;;;;;;;5.18;4.88;;;;;;;22.92;59.08;99840.44;10503758;28;20044;-72
2021/06/28 21:48:53;;;;;;;4.63;4.32;;;;;;;22.73;59.09;99821.56;10503278;28;20044;-71
2021/06/28 21:53:55;;;;;;;4.90;4.60;;;;;;;22.71;58.91;99826.22;10503034;28;20040;-71
2021/06/28 21:58:57;;;;;;;5.40;4.72;;;;;;;22.58;59.86;99826.41;10503266;28;20112;-71
2021/06/28 22:03:58;;;;;;;5.32;4.93;;;;;;;22.37;60.25;99820.19;10503434;28;20040;-72
2021/06/28 22:09:01;;;;;;;6.50;6.00;;;;;;;21.97;61.85;99830.66;10503429;28;20482;-72
2021/06/28 22:14:02;;;;;;;6.07;5.60;;;;;;;21.87;61.95;99823.38;10503021;28;20070;-72
2021/06/28 22:19:04;;;;;;;5.72;5.32;;;;;;;22.09;61.12;99814.44;10502599;28;20039;-73
2021/06/28 22:24:06;;;;;;;6.00;5.40;;;;;;;21.95;61.55;99822.72;10484158;28;20052;-73
2021/06/28 22:29:07;;;;;;;5.85;5.45;;;;;;;21.89;61.88;99820.56;10484425;28;20036;-72
2021/06/28 22:34:09;;;;;;;6.60;6.00;;;;;;;21.80;62.18;99818.66;10502785;28;20052;-73
2021/06/28 22:39:11;;;;;;;6.25;5.80;;;;;;;21.87;62.18;99827.88;10502912;28;20042;-72
2021/06/28 22:44:13;;;;;;;6.38;5.88;;;;;;;21.87;62.26;99825.22;10502052;28;20044;-72
2021/06/28 22:49:14;;;;;;;7.55;6.95;;;;;;;22.08;61.63;99815.38;10501457;28;20044;-71
2021/06/28 22:54:16;;;;;;;7.43;6.82;;;;;;;21.79;62.50;99804.44;10501322;28;20070;-71
2021/06/28 22:59:17;;;;;;;7.97;7.38;;;;;;;21.81;62.71;99801.63;10483354;28;20037;-73
2021/06/28 23:04:19;;;;;;;9.00;8.30;;;;;;;21.39;63.62;99798.78;10501882;28;20556;-72
2021/06/28 23:09:20;;;;;;;9.25;8.55;;;;;;;21.07;65.08;99796.84;10501408;28;20517;-73
2021/06/28 23:14:22;;;;;;;8.90;8.23;;;;;;;20.92;65.49;99798.88;10502057;28;20049;-72
2021/06/28 23:19:23;;;;;;;9.68;8.88;;;;;;;21.03;65.20;99783.81;10500737;28;20048;-70
2021/06/28 23:24:25;;;;;;;11.20;10.13;;;;;;;21.28;64.71;99772.03;10501133;28;20444;-71
2021/06/28 23:29:27;;;;;;;11.82;10.93;;;;;;;21.11;65.00;99768.03;10501493;28;20436;-71